sensor_id;sensor_type;location;lat;lon;timestamp;temperature;humidity
4081;DHT22;2055;50.074;8.436;2023-04-03T00:00:52;5.00;99.90
4081;DHT22;2055;50.074;8.436;2023-04-03T00:03:19;5.00;99.90
4081;DHT22;2055;50.074;8.436;2023-04-03T00:05:45;5.00;99.90
4081;DHT22;2055;50.074;8.436;2023-04-03T00:08:11;5.00;99.90
4081;DHT22;2055;50.074;8.436;2023-04-03T00:10:37;5.00;99.90
4081;DHT22;2055;50.074;8.436;2023-04-03T00:13:04;4.90;99.90
4081;DHT22;2055;50.074;8.436;2023-04-03T00:15:30;4.90;99.90
4081;DHT22;2055;50.074;8.436;2023-04-03T00:17:56;4.90;99.90
4081;DHT22;2055;50.074;8.436;2023-04-03T00:20:22;4.80;99.90
4081;DHT22;2055;50.074;8.436;2023-04-03T00:22:47;4.80;99.90
4081;DHT22;2055;50.074;8.436;2023-04-03T00:25:13;4.80;99.90
4081;DHT22;2055;50.074;8.436;2023-04-03T00:27:39;4.80;99.90
4081;DHT22;2055;50.074;8.436;2023-04-03T00:30:07;4.90;99.90
4081;DHT22;2055;50.074;8.436;2023-04-03T00:32:33;4.90;99.90
4081;DHT22;2055;50.074;8.436;2023-04-03T00:34:59;5.00;99.90
4081;DHT22;2055;50.074;8.436;2023-04-03T00:37:24;5.00;99.90
4081;DHT22;2055;50.074;8.436;2023-04-03T00:39:50;5.00;99.90
4081;DHT22;2055;50.074;8.436;2023-04-03T00:42:16;5.10;99.90
4081;DHT22;2055;50.074;8.436;2023-04-03T00:47:12;5.10;99.90
4081;DHT22;2055;50.074;8.436;2023-04-03T00:49:39;5.10;99.90
4081;DHT22;2055;50.074;8.436;2023-04-03T00:52:10;5.10;99.90
4081;DHT22;2055;50.074;8.436;2023-04-03T00:54:38;5.20;99.90
4081;DHT22;2055;50.074;8.436;2023-04-03T00:57:05;5.20;99.90
4081;DHT22;2055;50.074;8.436;2023-04-03T00:59:34;5.20;99.90
4081;DHT22;2055;50.074;8.436;2023-04-03T01:02:01;5.20;99.90
4081;DHT22;2055;50.074;8.436;2023-04-03T01:04:30;5.20;99.90
4081;DHT22;2055;50.074;8.436;2023-04-03T01:06:58;5.10;99.90
4081;DHT22;2055;50.074;8.436;2023-04-03T01:09:26;5.10;99.90
4081;DHT22;2055;50.074;8.436;2023-04-03T01:11:51;5.20;99.90
4081;DHT22;2055;50.074;8.436;2023-04-03T01:14:17;5.20;99.90
4081;DHT22;2055;50.074;8.436;2023-04-03T01:16:42;5.20;99.90
4081;DHT22;2055;50.074;8.436;2023-04-03T01:19:12;5.30;99.90
4081;DHT22;2055;50.074;8.436;2023-04-03T01:22:00;5.30;99.90
4081;DHT22;2055;50.074;8.436;2023-04-03T01:24:36;5.30;99.90
4081;DHT22;2055;50.074;8.436;2023-04-03T01:27:06;5.30;99.90
4081;DHT22;2055;50.074;8.436;2023-04-03T01:29:32;5.30;99.90
4081;DHT22;2055;50.074;8.436;2023-04-03T01:31:59;5.40;99.90
4081;DHT22;2055;50.074;8.436;2023-04-03T01:34:27;5.40;99.90
4081;DHT22;2055;50.074;8.436;2023-04-03T01:36:53;5.30;99.90
4081;DHT22;2055;50.074;8.436;2023-04-03T01:39:19;5.30;99.90
4081;DHT22;2055;50.074;8.436;2023-04-03T01:41:45;5.30;99.90
4081;DHT22;2055;50.074;8.436;2023-04-03T01:44:10;5.30;99.90
4081;DHT22;2055;50.074;8.436;2023-04-03T01:46:36;5.30;99.90
4081;DHT22;2055;50.074;8.436;2023-04-03T01:49:03;5.30;99.90
4081;DHT22;2055;50.074;8.436;2023-04-03T01:51:29;5.30;99.90
4081;DHT22;2055;50.074;8.436;2023-04-03T01:53:55;5.30;99.90
4081;DHT22;2055;50.074;8.436;2023-04-03T01:56:21;5.20;99.90
4081;DHT22;2055;50.074;8.436;2023-04-03T01:58:47;5.20;99.90
4081;DHT22;2055;50.074;8.436;2023-04-03T02:01:12;5.20;99.90
4081;DHT22;2055;50.074;8.436;2023-04-03T02:03:38;5.20;99.90
4081;DHT22;2055;50.074;8.436;2023-04-03T02:06:03;5.20;99.90
4081;DHT22;2055;50.074;8.436;2023-04-03T02:08:29;5.10;99.90
4081;DHT22;2055;50.074;8.436;2023-04-03T02:10:54;5.10;99.90
4081;DHT22;2055;50.074;8.436;2023-04-03T02:13:20;5.10;99.90
4081;DHT22;2055;50.074;8.436;2023-04-03T02:15:46;5.10;99.90
4081;DHT22;2055;50.074;8.436;2023-04-03T02:18:12;5.10;99.90
4081;DHT22;2055;50.074;8.436;2023-04-03T02:20:38;5.10;99.90
4081;DHT22;2055;50.074;8.436;2023-04-03T02:23:03;5.10;99.90
4081;DHT22;2055;50.074;8.436;2023-04-03T02:25:31;5.10;99.90
4081;DHT22;2055;50.074;8.436;2023-04-03T02:27:56;5.10;99.90
4081;DHT22;2055;50.074;8.436;2023-04-03T02:30:22;5.10;99.90
4081;DHT22;2055;50.074;8.436;2023-04-03T02:32:47;5.10;99.90
4081;DHT22;2055;50.074;8.436;2023-04-03T02:35:13;5.50;99.90
4081;DHT22;2055;50.074;8.436;2023-04-03T02:37:39;5.10;99.90
4081;DHT22;2055;50.074;8.436;2023-04-03T02:40:05;5.10;99.90
4081;DHT22;2055;50.074;8.436;2023-04-03T02:42:31;5.10;99.90
4081;DHT22;2055;50.074;8.436;2023-04-03T02:44:57;5.10;99.90
4081;DHT22;2055;50.074;8.436;2023-04-03T02:47:22;5.10;99.90
4081;DHT22;2055;50.074;8.436;2023-04-03T02:49:48;5.30;99.90
4081;DHT22;2055;50.074;8.436;2023-04-03T02:52:14;5.10;99.90
4081;DHT22;2055;50.074;8.436;2023-04-03T02:54:39;5.10;99.90
4081;DHT22;2055;50.074;8.436;2023-04-03T02:57:06;5.00;99.90
4081;DHT22;2055;50.074;8.436;2023-04-03T02:59:34;5.00;99.90
4081;DHT22;2055;50.074;8.436;2023-04-03T03:02:00;5.00;99.90
4081;DHT22;2055;50.074;8.436;2023-04-03T03:04:26;5.00;99.90
4081;DHT22;2055;50.074;8.436;2023-04-03T03:06:51;5.00;99.90
4081;DHT22;2055;50.074;8.436;2023-04-03T03:09:17;5.00;99.90
4081;DHT22;2055;50.074;8.436;2023-04-03T03:11:43;5.00;99.90
4081;DHT22;2055;50.074;8.436;2023-04-03T03:14:08;4.90;99.90
4081;DHT22;2055;50.074;8.436;2023-04-03T03:16:34;4.90;99.90
4081;DHT22;2055;50.074;8.436;2023-04-03T03:19:00;4.90;99.90
4081;DHT22;2055;50.074;8.436;2023-04-03T03:21:25;4.80;99.90
4081;DHT22;2055;50.074;8.436;2023-04-03T03:23:51;4.80;99.90
4081;DHT22;2055;50.074;8.436;2023-04-03T03:26:16;4.80;99.90
4081;DHT22;2055;50.074;8.436;2023-04-03T03:28:42;4.80;99.90
4081;DHT22;2055;50.074;8.436;2023-04-03T03:31:08;4.70;99.90
4081;DHT22;2055;50.074;8.436;2023-04-03T03:33:34;4.70;99.90
4081;DHT22;2055;50.074;8.436;2023-04-03T03:35:59;4.60;99.90
4081;DHT22;2055;50.074;8.436;2023-04-03T03:38:25;4.50;99.90
4081;DHT22;2055;50.074;8.436;2023-04-03T03:40:51;4.50;99.90
4081;DHT22;2055;50.074;8.436;2023-04-03T03:43:18;4.40;99.90
4081;DHT22;2055;50.074;8.436;2023-04-03T03:45:44;4.50;99.90
4081;DHT22;2055;50.074;8.436;2023-04-03T03:48:10;4.50;99.90
4081;DHT22;2055;50.074;8.436;2023-04-03T03:50:36;4.50;99.90
4081;DHT22;2055;50.074;8.436;2023-04-03T03:53:02;4.40;99.90
4081;DHT22;2055;50.074;8.436;2023-04-03T03:55:27;6.60;99.90
4081;DHT22;2055;50.074;8.436;2023-04-03T03:57:53;4.40;99.90
4081;DHT22;2055;50.074;8.436;2023-04-03T04:00:19;4.30;99.90
4081;DHT22;2055;50.074;8.436;2023-04-03T04:02:44;4.30;99.90
4081;DHT22;2055;50.074;8.436;2023-04-03T04:05:11;4.30;99.90
4081;DHT22;2055;50.074;8.436;2023-04-03T04:07:36;4.20;99.90
4081;DHT22;2055;50.074;8.436;2023-04-03T04:10:02;4.20;99.90
4081;DHT22;2055;50.074;8.436;2023-04-03T04:12:28;4.10;99.90
4081;DHT22;2055;50.074;8.436;2023-04-03T04:14:53;4.10;99.90
4081;DHT22;2055;50.074;8.436;2023-04-03T04:17:19;4.10;99.90
4081;DHT22;2055;50.074;8.436;2023-04-03T04:19:45;4.00;99.90
4081;DHT22;2055;50.074;8.436;2023-04-03T04:22:10;4.20;99.90
4081;DHT22;2055;50.074;8.436;2023-04-03T04:24:36;3.90;99.90
4081;DHT22;2055;50.074;8.436;2023-04-03T04:27:02;3.80;99.90
4081;DHT22;2055;50.074;8.436;2023-04-03T04:29:28;3.70;99.90
4081;DHT22;2055;50.074;8.436;2023-04-03T04:31:53;3.70;99.90
4081;DHT22;2055;50.074;8.436;2023-04-03T04:34:19;3.90;99.90
4081;DHT22;2055;50.074;8.436;2023-04-03T04:36:44;3.80;99.90
4081;DHT22;2055;50.074;8.436;2023-04-03T04:39:10;3.50;99.90
4081;DHT22;2055;50.074;8.436;2023-04-03T04:41:35;3.00;99.90
4081;DHT22;2055;50.074;8.436;2023-04-03T04:44:01;3.40;99.90
4081;DHT22;2055;50.074;8.436;2023-04-03T04:46:27;3.40;99.90
4081;DHT22;2055;50.074;8.436;2023-04-03T04:48:53;3.30;99.90
4081;DHT22;2055;50.074;8.436;2023-04-03T04:51:18;3.30;99.90
4081;DHT22;2055;50.074;8.436;2023-04-03T04:53:44;3.20;99.90
4081;DHT22;2055;50.074;8.436;2023-04-03T04:56:10;3.20;99.90
4081;DHT22;2055;50.074;8.436;2023-04-03T04:58:35;3.20;99.90
4081;DHT22;2055;50.074;8.436;2023-04-03T05:01:02;3.10;99.90
4081;DHT22;2055;50.074;8.436;2023-04-03T05:03:28;3.10;99.90
4081;DHT22;2055;50.074;8.436;2023-04-03T05:05:54;3.20;99.90
4081;DHT22;2055;50.074;8.436;2023-04-03T05:08:19;3.10;99.90
4081;DHT22;2055;50.074;8.436;2023-04-03T05:10:45;3.10;99.90
4081;DHT22;2055;50.074;8.436;2023-04-03T05:13:11;3.20;99.90
4081;DHT22;2055;50.074;8.436;2023-04-03T05:15:37;3.40;99.90
4081;DHT22;2055;50.074;8.436;2023-04-03T05:18:02;3.10;99.90
4081;DHT22;2055;50.074;8.436;2023-04-03T05:20:28;3.10;99.90
4081;DHT22;2055;50.074;8.436;2023-04-03T05:22:54;3.10;99.90
4081;DHT22;2055;50.074;8.436;2023-04-03T05:25:19;3.20;99.90
4081;DHT22;2055;50.074;8.436;2023-04-03T05:27:45;3.10;99.90
4081;DHT22;2055;50.074;8.436;2023-04-03T05:30:11;3.10;99.90
4081;DHT22;2055;50.074;8.436;2023-04-03T05:32:36;3.10;99.90
4081;DHT22;2055;50.074;8.436;2023-04-03T05:35:02;3.10;99.90
4081;DHT22;2055;50.074;8.436;2023-04-03T05:37:28;3.10;99.90
4081;DHT22;2055;50.074;8.436;2023-04-03T05:39:54;3.20;99.90
4081;DHT22;2055;50.074;8.436;2023-04-03T05:42:19;3.20;99.90
4081;DHT22;2055;50.074;8.436;2023-04-03T05:44:45;3.20;99.90
4081;DHT22;2055;50.074;8.436;2023-04-03T05:47:12;3.50;99.90
4081;DHT22;2055;50.074;8.436;2023-04-03T05:49:38;3.20;99.90
4081;DHT22;2055;50.074;8.436;2023-04-03T05:52:11;3.50;99.90
4081;DHT22;2055;50.074;8.436;2023-04-03T05:54:42;3.20;99.90
4081;DHT22;2055;50.074;8.436;2023-04-03T05:57:08;3.30;99.90
4081;DHT22;2055;50.074;8.436;2023-04-03T05:59:33;3.40;99.90
4081;DHT22;2055;50.074;8.436;2023-04-03T06:01:59;3.30;99.90
4081;DHT22;2055;50.074;8.436;2023-04-03T06:04:24;3.30;99.90
4081;DHT22;2055;50.074;8.436;2023-04-03T06:06:56;3.30;99.90
4081;DHT22;2055;50.074;8.436;2023-04-03T06:09:25;3.30;99.90
4081;DHT22;2055;50.074;8.436;2023-04-03T06:11:51;3.30;99.90
4081;DHT22;2055;50.074;8.436;2023-04-03T06:14:17;3.40;99.90
4081;DHT22;2055;50.074;8.436;2023-04-03T06:16:43;3.40;99.90
4081;DHT22;2055;50.074;8.436;2023-04-03T06:19:09;3.50;99.90
4081;DHT22;2055;50.074;8.436;2023-04-03T06:21:35;3.90;99.90
4081;DHT22;2055;50.074;8.436;2023-04-03T06:24:01;3.60;99.90
4081;DHT22;2055;50.074;8.436;2023-04-03T06:26:27;3.60;99.90
4081;DHT22;2055;50.074;8.436;2023-04-03T06:28:53;3.60;99.90
4081;DHT22;2055;50.074;8.436;2023-04-03T06:31:19;3.70;99.90
4081;DHT22;2055;50.074;8.436;2023-04-03T06:33:45;3.80;99.90
4081;DHT22;2055;50.074;8.436;2023-04-03T06:36:11;3.80;99.90
4081;DHT22;2055;50.074;8.436;2023-04-03T06:38:37;3.90;99.90
4081;DHT22;2055;50.074;8.436;2023-04-03T06:41:03;3.90;99.90
4081;DHT22;2055;50.074;8.436;2023-04-03T06:43:29;3.90;99.90
4081;DHT22;2055;50.074;8.436;2023-04-03T06:45:56;3.80;99.90
4081;DHT22;2055;50.074;8.436;2023-04-03T06:48:22;4.10;99.90
4081;DHT22;2055;50.074;8.436;2023-04-03T06:50:48;3.90;99.90
4081;DHT22;2055;50.074;8.436;2023-04-03T06:53:14;4.00;99.90
4081;DHT22;2055;50.074;8.436;2023-04-03T06:55:40;3.90;99.90
4081;DHT22;2055;50.074;8.436;2023-04-03T06:58:07;4.20;99.90
4081;DHT22;2055;50.074;8.436;2023-04-03T07:00:32;4.00;99.90
4081;DHT22;2055;50.074;8.436;2023-04-03T07:02:58;4.10;99.90
4081;DHT22;2055;50.074;8.436;2023-04-03T07:05:24;4.10;99.90
4081;DHT22;2055;50.074;8.436;2023-04-03T07:07:50;4.30;99.90
4081;DHT22;2055;50.074;8.436;2023-04-03T07:10:16;4.50;99.90
4081;DHT22;2055;50.074;8.436;2023-04-03T07:12:42;4.30;99.90
4081;DHT22;2055;50.074;8.436;2023-04-03T07:15:08;4.20;99.90
4081;DHT22;2055;50.074;8.436;2023-04-03T07:17:34;4.30;99.90
4081;DHT22;2055;50.074;8.436;2023-04-03T07:20:01;4.30;99.90
4081;DHT22;2055;50.074;8.436;2023-04-03T07:22:27;4.30;99.90
4081;DHT22;2055;50.074;8.436;2023-04-03T07:24:52;4.30;99.90
4081;DHT22;2055;50.074;8.436;2023-04-03T07:27:18;4.50;99.90
4081;DHT22;2055;50.074;8.436;2023-04-03T07:29:43;4.40;99.90
4081;DHT22;2055;50.074;8.436;2023-04-03T07:32:10;4.40;99.90
4081;DHT22;2055;50.074;8.436;2023-04-03T07:34:35;4.50;99.90
4081;DHT22;2055;50.074;8.436;2023-04-03T07:37:01;4.50;99.90
4081;DHT22;2055;50.074;8.436;2023-04-03T07:39:28;4.50;99.90
4081;DHT22;2055;50.074;8.436;2023-04-03T07:41:54;4.60;99.90
4081;DHT22;2055;50.074;8.436;2023-04-03T07:44:20;4.60;99.90
4081;DHT22;2055;50.074;8.436;2023-04-03T07:46:46;4.70;99.90
4081;DHT22;2055;50.074;8.436;2023-04-03T07:49:12;4.80;99.90
4081;DHT22;2055;50.074;8.436;2023-04-03T07:51:37;4.80;99.90
4081;DHT22;2055;50.074;8.436;2023-04-03T07:54:03;4.90;99.90
4081;DHT22;2055;50.074;8.436;2023-04-03T07:56:29;4.70;99.90
4081;DHT22;2055;50.074;8.436;2023-04-03T07:58:54;4.80;99.90
4081;DHT22;2055;50.074;8.436;2023-04-03T08:01:20;5.00;99.90
4081;DHT22;2055;50.074;8.436;2023-04-03T08:03:46;4.90;99.90
4081;DHT22;2055;50.074;8.436;2023-04-03T08:06:11;4.80;99.90
4081;DHT22;2055;50.074;8.436;2023-04-03T08:08:38;4.70;99.90
4081;DHT22;2055;50.074;8.436;2023-04-03T08:11:04;4.90;99.90
4081;DHT22;2055;50.074;8.436;2023-04-03T08:13:31;4.90;99.90
4081;DHT22;2055;50.074;8.436;2023-04-03T08:15:57;4.80;99.90
4081;DHT22;2055;50.074;8.436;2023-04-03T08:18:24;4.90;99.90
4081;DHT22;2055;50.074;8.436;2023-04-03T08:20:51;5.00;99.90
4081;DHT22;2055;50.074;8.436;2023-04-03T08:23:18;5.20;99.90
4081;DHT22;2055;50.074;8.436;2023-04-03T08:25:44;5.40;99.90
4081;DHT22;2055;50.074;8.436;2023-04-03T08:28:11;5.50;99.90
4081;DHT22;2055;50.074;8.436;2023-04-03T08:30:39;5.80;99.90
4081;DHT22;2055;50.074;8.436;2023-04-03T08:33:05;5.50;99.90
4081;DHT22;2055;50.074;8.436;2023-04-03T08:35:31;5.50;99.90
4081;DHT22;2055;50.074;8.436;2023-04-03T08:37:57;5.60;99.90
4081;DHT22;2055;50.074;8.436;2023-04-03T08:40:23;5.40;99.90
4081;DHT22;2055;50.074;8.436;2023-04-03T08:45:52;5.20;99.90
4081;DHT22;2055;50.074;8.436;2023-04-03T08:48:27;5.50;99.90
4081;DHT22;2055;50.074;8.436;2023-04-03T08:50:58;5.70;99.90
4081;DHT22;2055;50.074;8.436;2023-04-03T08:53:30;5.90;99.90
4081;DHT22;2055;50.074;8.436;2023-04-03T08:55:58;5.70;99.90
4081;DHT22;2055;50.074;8.436;2023-04-03T08:58:30;5.80;99.90
4081;DHT22;2055;50.074;8.436;2023-04-03T09:03:30;5.90;99.90
4081;DHT22;2055;50.074;8.436;2023-04-03T09:09:07;6.00;99.90
4081;DHT22;2055;50.074;8.436;2023-04-03T09:11:44;6.10;99.90
4081;DHT22;2055;50.074;8.436;2023-04-03T09:14:30;6.20;99.90
4081;DHT22;2055;50.074;8.436;2023-04-03T09:17:02;6.30;99.90
4081;DHT22;2055;50.074;8.436;2023-04-03T09:22:24;6.50;99.90
4081;DHT22;2055;50.074;8.436;2023-04-03T09:25:10;6.50;99.90
4081;DHT22;2055;50.074;8.436;2023-04-03T09:27:37;6.80;99.90
4081;DHT22;2055;50.074;8.436;2023-04-03T09:30:03;6.70;99.90
4081;DHT22;2055;50.074;8.436;2023-04-03T09:32:31;6.60;99.90
4081;DHT22;2055;50.074;8.436;2023-04-03T09:35:03;6.60;99.90
4081;DHT22;2055;50.074;8.436;2023-04-03T09:37:41;6.70;99.90
4081;DHT22;2055;50.074;8.436;2023-04-03T09:40:31;6.70;99.90
4081;DHT22;2055;50.074;8.436;2023-04-03T09:42:59;6.70;99.90
4081;DHT22;2055;50.074;8.436;2023-04-03T09:45:35;6.60;99.90
4081;DHT22;2055;50.074;8.436;2023-04-03T09:48:15;6.50;99.90
4081;DHT22;2055;50.074;8.436;2023-04-03T09:53:43;6.80;99.90
4081;DHT22;2055;50.074;8.436;2023-04-03T09:58:43;6.80;99.90
4081;DHT22;2055;50.074;8.436;2023-04-03T10:06:35;7.60;99.90
4081;DHT22;2055;50.074;8.436;2023-04-03T10:09:22;9.10;99.90
4081;DHT22;2055;50.074;8.436;2023-04-03T10:14:37;11.30;99.90
4081;DHT22;2055;50.074;8.436;2023-04-03T10:17:18;11.30;99.90
4081;DHT22;2055;50.074;8.436;2023-04-03T10:19:56;11.40;99.90
4081;DHT22;2055;50.074;8.436;2023-04-03T10:25:20;10.60;99.90
4081;DHT22;2055;50.074;8.436;2023-04-03T10:34:05;10.20;99.90
4081;DHT22;2055;50.074;8.436;2023-04-03T10:36:12;10.00;99.90
4081;DHT22;2055;50.074;8.436;2023-04-03T10:42:03;10.20;99.90
4081;DHT22;2055;50.074;8.436;2023-04-03T10:44:50;11.10;99.90
4081;DHT22;2055;50.074;8.436;2023-04-03T10:47:28;10.60;99.90
4081;DHT22;2055;50.074;8.436;2023-04-03T10:50:23;9.40;99.90
4081;DHT22;2055;50.074;8.436;2023-04-03T10:52:57;9.60;99.90
4081;DHT22;2055;50.074;8.436;2023-04-03T10:55:50;8.50;99.90
4081;DHT22;2055;50.074;8.436;2023-04-03T10:58:35;8.40;99.90
4081;DHT22;2055;50.074;8.436;2023-04-03T11:01:08;9.50;99.90
4081;DHT22;2055;50.074;8.436;2023-04-03T11:03:39;9.60;99.90
4081;DHT22;2055;50.074;8.436;2023-04-03T11:06:09;9.40;99.90
4081;DHT22;2055;50.074;8.436;2023-04-03T11:08:46;9.90;99.90
4081;DHT22;2055;50.074;8.436;2023-04-03T11:11:26;9.30;99.90
4081;DHT22;2055;50.074;8.436;2023-04-03T11:14:09;9.20;99.90
4081;DHT22;2055;50.074;8.436;2023-04-03T11:16:42;9.20;99.90
4081;DHT22;2055;50.074;8.436;2023-04-03T11:19:21;8.90;99.90
4081;DHT22;2055;50.074;8.436;2023-04-03T11:22:00;8.70;99.90
4081;DHT22;2055;50.074;8.436;2023-04-03T11:24:29;9.20;99.90
4081;DHT22;2055;50.074;8.436;2023-04-03T11:26:57;9.70;99.90
4081;DHT22;2055;50.074;8.436;2023-04-03T11:29:28;9.80;99.90
4081;DHT22;2055;50.074;8.436;2023-04-03T11:34:54;9.50;99.90
4081;DHT22;2055;50.074;8.436;2023-04-03T11:37:45;10.10;99.90
4081;DHT22;2055;50.074;8.436;2023-04-03T11:42:42;9.80;99.90
4081;DHT22;2055;50.074;8.436;2023-04-03T11:48:05;10.20;99.90
4081;DHT22;2055;50.074;8.436;2023-04-03T11:50:46;10.10;99.90
4081;DHT22;2055;50.074;8.436;2023-04-03T11:55:52;9.10;99.90
4081;DHT22;2055;50.074;8.436;2023-04-03T11:58:27;9.50;99.90
4081;DHT22;2055;50.074;8.436;2023-04-03T12:01:06;10.30;99.90
4081;DHT22;2055;50.074;8.436;2023-04-03T12:03:56;10.50;99.90
4081;DHT22;2055;50.074;8.436;2023-04-03T12:08:59;10.50;99.90
4081;DHT22;2055;50.074;8.436;2023-04-03T12:11:31;10.80;99.90
4081;DHT22;2055;50.074;8.436;2023-04-03T12:29:21;10.80;97.90
4081;DHT22;2055;50.074;8.436;2023-04-03T12:32:44;10.70;99.40
4081;DHT22;2055;50.074;8.436;2023-04-03T12:35:15;10.90;99.00
4081;DHT22;2055;50.074;8.436;2023-04-03T12:48:27;10.20;96.20
4081;DHT22;2055;50.074;8.436;2023-04-03T12:50:54;10.50;97.20
4081;DHT22;2055;50.074;8.436;2023-04-03T12:53:28;9.80;97.10
4081;DHT22;2055;50.074;8.436;2023-04-03T12:58:43;10.30;97.30
4081;DHT22;2055;50.074;8.436;2023-04-03T13:01:12;10.70;96.90
4081;DHT22;2055;50.074;8.436;2023-04-03T13:03:42;10.60;96.10
4081;DHT22;2055;50.074;8.436;2023-04-03T13:06:17;11.00;96.30
4081;DHT22;2055;50.074;8.436;2023-04-03T13:08:55;11.20;96.70
4081;DHT22;2055;50.074;8.436;2023-04-03T13:11:23;11.70;96.50
4081;DHT22;2055;50.074;8.436;2023-04-03T13:13:59;11.30;95.70
4081;DHT22;2055;50.074;8.436;2023-04-03T13:16:27;11.90;96.60
4081;DHT22;2055;50.074;8.436;2023-04-03T13:18:53;12.20;95.00
4081;DHT22;2055;50.074;8.436;2023-04-03T13:21:25;11.80;94.00
4081;DHT22;2055;50.074;8.436;2023-04-03T13:23:55;11.40;93.30
4081;DHT22;2055;50.074;8.436;2023-04-03T13:26:23;11.70;94.30
4081;DHT22;2055;50.074;8.436;2023-04-03T13:28:51;11.80;93.60
4081;DHT22;2055;50.074;8.436;2023-04-03T13:31:27;11.80;92.20
4081;DHT22;2055;50.074;8.436;2023-04-03T13:34:03;11.20;92.80
4081;DHT22;2055;50.074;8.436;2023-04-03T13:36:34;11.60;93.10
4081;DHT22;2055;50.074;8.436;2023-04-03T13:41:38;11.90;93.70
4081;DHT22;2055;50.074;8.436;2023-04-03T13:46:49;12.40;92.50
4081;DHT22;2055;50.074;8.436;2023-04-03T13:49:31;12.10;92.10
4081;DHT22;2055;50.074;8.436;2023-04-03T13:51:57;11.80;92.30
4081;DHT22;2055;50.074;8.436;2023-04-03T13:54:29;11.70;92.90
4081;DHT22;2055;50.074;8.436;2023-04-03T13:56:57;11.90;91.40
4081;DHT22;2055;50.074;8.436;2023-04-03T13:59:31;12.10;92.00
4081;DHT22;2055;50.074;8.436;2023-04-03T14:07:05;11.10;90.00
4081;DHT22;2055;50.074;8.436;2023-04-03T14:09:31;11.10;90.10
4081;DHT22;2055;50.074;8.436;2023-04-03T14:12:04;11.80;91.40
4081;DHT22;2055;50.074;8.436;2023-04-03T14:14:32;12.00;90.00
4081;DHT22;2055;50.074;8.436;2023-04-03T14:17:00;11.80;91.40
4081;DHT22;2055;50.074;8.436;2023-04-03T14:19:30;12.10;91.00
4081;DHT22;2055;50.074;8.436;2023-04-03T14:21:56;12.40;90.60
4081;DHT22;2055;50.074;8.436;2023-04-03T14:24:22;12.20;90.80
4081;DHT22;2055;50.074;8.436;2023-04-03T14:26:49;12.40;89.50
4081;DHT22;2055;50.074;8.436;2023-04-03T14:29:16;12.40;88.90
4081;DHT22;2055;50.074;8.436;2023-04-03T14:31:43;13.00;89.20
4081;DHT22;2055;50.074;8.436;2023-04-03T14:34:10;12.50;86.20
4081;DHT22;2055;50.074;8.436;2023-04-03T14:36:37;12.10;86.00
4081;DHT22;2055;50.074;8.436;2023-04-03T14:39:04;12.50;87.10
4081;DHT22;2055;50.074;8.436;2023-04-03T14:41:30;12.30;88.70
4081;DHT22;2055;50.074;8.436;2023-04-03T14:43:55;12.70;88.40
4081;DHT22;2055;50.074;8.436;2023-04-03T14:46:37;12.80;89.30
4081;DHT22;2055;50.074;8.436;2023-04-03T14:49:14;13.20;89.20
4081;DHT22;2055;50.074;8.436;2023-04-03T14:51:39;13.60;87.60
4081;DHT22;2055;50.074;8.436;2023-04-03T14:54:05;13.10;85.70
4081;DHT22;2055;50.074;8.436;2023-04-03T14:56:36;12.30;85.50
4081;DHT22;2055;50.074;8.436;2023-04-03T14:59:02;12.80;88.90
4081;DHT22;2055;50.074;8.436;2023-04-03T15:01:28;12.80;86.10
4081;DHT22;2055;50.074;8.436;2023-04-03T15:03:54;12.80;84.90
4081;DHT22;2055;50.074;8.436;2023-04-03T15:06:20;12.50;81.90
4081;DHT22;2055;50.074;8.436;2023-04-03T15:08:47;12.60;84.10
4081;DHT22;2055;50.074;8.436;2023-04-03T15:11:14;12.90;83.80
4081;DHT22;2055;50.074;8.436;2023-04-03T15:13:40;12.10;81.70
4081;DHT22;2055;50.074;8.436;2023-04-03T15:16:16;12.20;83.00
4081;DHT22;2055;50.074;8.436;2023-04-03T15:18:43;12.20;82.60
4081;DHT22;2055;50.074;8.436;2023-04-03T15:21:09;12.20;84.00
4081;DHT22;2055;50.074;8.436;2023-04-03T15:23:34;12.20;85.10
4081;DHT22;2055;50.074;8.436;2023-04-03T15:26:00;12.50;86.30
4081;DHT22;2055;50.074;8.436;2023-04-03T15:28:35;12.80;83.10
4081;DHT22;2055;50.074;8.436;2023-04-03T15:31:01;12.70;79.20
4081;DHT22;2055;50.074;8.436;2023-04-03T15:33:27;12.40;79.80
4081;DHT22;2055;50.074;8.436;2023-04-03T15:35:53;12.60;80.40
4081;DHT22;2055;50.074;8.436;2023-04-03T15:38:19;12.70;79.80
4081;DHT22;2055;50.074;8.436;2023-04-03T15:40:45;12.20;80.10
4081;DHT22;2055;50.074;8.436;2023-04-03T15:43:12;12.20;81.60
4081;DHT22;2055;50.074;8.436;2023-04-03T15:45:38;12.40;81.20
4081;DHT22;2055;50.074;8.436;2023-04-03T15:48:05;12.30;80.60
4081;DHT22;2055;50.074;8.436;2023-04-03T15:50:32;12.20;81.50
4081;DHT22;2055;50.074;8.436;2023-04-03T15:52:58;12.30;82.90
4081;DHT22;2055;50.074;8.436;2023-04-03T15:55:25;12.40;81.80
4081;DHT22;2055;50.074;8.436;2023-04-03T15:57:54;12.00;81.50
4081;DHT22;2055;50.074;8.436;2023-04-03T16:00:20;11.80;82.10
4081;DHT22;2055;50.074;8.436;2023-04-03T16:02:49;11.80;82.60
4081;DHT22;2055;50.074;8.436;2023-04-03T16:05:17;11.80;80.90
4081;DHT22;2055;50.074;8.436;2023-04-03T16:07:45;11.60;79.60
4081;DHT22;2055;50.074;8.436;2023-04-03T16:10:13;11.60;77.90
4081;DHT22;2055;50.074;8.436;2023-04-03T16:12:39;11.40;77.90
4081;DHT22;2055;50.074;8.436;2023-04-03T16:15:05;10.70;77.20
4081;DHT22;2055;50.074;8.436;2023-04-03T16:17:32;10.40;79.60
4081;DHT22;2055;50.074;8.436;2023-04-03T16:19:58;9.90;81.50
4081;DHT22;2055;50.074;8.436;2023-04-03T16:22:25;9.50;82.40
4081;DHT22;2055;50.074;8.436;2023-04-03T16:24:51;9.20;83.30
4081;DHT22;2055;50.074;8.436;2023-04-03T16:27:16;9.20;84.30
4081;DHT22;2055;50.074;8.436;2023-04-03T16:29:42;9.00;85.10
4081;DHT22;2055;50.074;8.436;2023-04-03T16:32:08;8.60;85.30
4081;DHT22;2055;50.074;8.436;2023-04-03T16:34:33;8.40;86.80
4081;DHT22;2055;50.074;8.436;2023-04-03T16:36:59;8.20;88.40
4081;DHT22;2055;50.074;8.436;2023-04-03T16:39:25;8.00;86.10
4081;DHT22;2055;50.074;8.436;2023-04-03T16:41:51;8.00;87.50
4081;DHT22;2055;50.074;8.436;2023-04-03T16:44:17;7.90;86.50
4081;DHT22;2055;50.074;8.436;2023-04-03T16:46:42;7.70;87.60
4081;DHT22;2055;50.074;8.436;2023-04-03T16:49:08;7.60;89.20
4081;DHT22;2055;50.074;8.436;2023-04-03T16:51:34;7.50;90.00
4081;DHT22;2055;50.074;8.436;2023-04-03T16:53:59;7.40;90.90
4081;DHT22;2055;50.074;8.436;2023-04-03T16:56:25;7.20;91.10
4081;DHT22;2055;50.074;8.436;2023-04-03T16:58:52;7.40;91.80
4081;DHT22;2055;50.074;8.436;2023-04-03T17:01:20;7.30;91.30
4081;DHT22;2055;50.074;8.436;2023-04-03T17:03:46;7.30;91.50
4081;DHT22;2055;50.074;8.436;2023-04-03T17:06:15;7.10;90.50
4081;DHT22;2055;50.074;8.436;2023-04-03T17:08:45;7.10;90.50
4081;DHT22;2055;50.074;8.436;2023-04-03T17:11:11;7.00;91.60
4081;DHT22;2055;50.074;8.436;2023-04-03T17:13:37;7.00;92.20
4081;DHT22;2055;50.074;8.436;2023-04-03T17:16:05;6.90;91.80
4081;DHT22;2055;50.074;8.436;2023-04-03T17:18:32;7.10;92.00
4081;DHT22;2055;50.074;8.436;2023-04-03T17:20:58;6.80;92.20
4081;DHT22;2055;50.074;8.436;2023-04-03T17:23:25;6.70;92.20
4081;DHT22;2055;50.074;8.436;2023-04-03T17:25:51;6.70;91.20
4081;DHT22;2055;50.074;8.436;2023-04-03T17:28:18;6.70;91.00
4081;DHT22;2055;50.074;8.436;2023-04-03T17:30:44;6.60;90.90
4081;DHT22;2055;50.074;8.436;2023-04-03T17:33:09;6.50;91.40
4081;DHT22;2055;50.074;8.436;2023-04-03T17:35:35;6.50;92.10
4081;DHT22;2055;50.074;8.436;2023-04-03T17:38:00;6.40;92.40
4081;DHT22;2055;50.074;8.436;2023-04-03T17:40:26;6.40;93.00
4081;DHT22;2055;50.074;8.436;2023-04-03T17:42:51;6.30;93.50
4081;DHT22;2055;50.074;8.436;2023-04-03T17:45:17;6.30;92.80
4081;DHT22;2055;50.074;8.436;2023-04-03T17:47:43;6.20;93.00
4081;DHT22;2055;50.074;8.436;2023-04-03T17:50:10;6.20;93.20
4081;DHT22;2055;50.074;8.436;2023-04-03T17:52:36;6.00;93.70